Time;durP1;ratioP1;P1;durP2;ratioP2;P2;SDS_P1;SDS_P2;PMS_P1;PMS_P2;Temp;Humidity;BMP_temperature;BMP_pressure;BME280_temperature;BME280_humidity;BME280_pressure;Samples;Min_cycle;Max_cycle;Signal;HPM_P1;HPM_P2
2022/05/09 00:02:14;;;;;;;;;;;;;;;13.13;79.96;96937.16;5106765;28;19923;-73
2022/05/09 00:04:41;;;;;;;;;;;;;;;13.13;79.61;96926.22;5108658;27;19930;-73
2022/05/09 00:07:08;;;;;;;;;;;;;;;13.11;79.84;96928.47;5106879;28;19923;-73
2022/05/09 00:09:35;;;;;;;;;;;;;;;13.11;79.78;96930.41;5108684;27;19927;-74
2022/05/09 00:12:02;;;;;;;;;;;;;;;13.08;80.10;96923.63;5106696;27;19924;-73
2022/05/09 00:14:28;;;;;;;;;;;;;;;13.07;80.09;96928.31;5108053;28;20002;-73
2022/05/09 00:16:54;;;;;;;;;;;;;;;13.07;80.08;96922.03;5107092;28;19923;-74
2022/05/09 00:19:21;;;;;;;;;;;;;;;13.04;79.71;96922.66;5106556;28;19930;-73
2022/05/09 00:21:48;;;;;;;;;;;;;;;12.98;79.95;96919.28;5107738;28;19989;-73
2022/05/09 00:24:17;;;;;;;;;;;;;;;12.99;80.10;96925.53;5106741;28;20337;-73
2022/05/09 00:26:44;;;;;;;;;;;;;;;12.97;79.88;96922.34;5108028;28;19930;-73
2022/05/09 00:29:12;;;;;;;;;;;;;;;12.96;79.75;96924.28;5106679;28;19923;-73
2022/05/09 00:31:39;;;;;;;;;;;;;;;12.95;79.85;96925.41;5107788;28;20693;-74
2022/05/09 00:34:05;;;;;;;;;;;;;;;12.92;79.75;96930.69;5106337;28;19976;-74
2022/05/09 00:36:32;;;;;;;;;;;;;;;12.91;79.78;96929.09;5107449;28;20289;-74
2022/05/09 00:38:59;;;;;;;;;;;;;;;12.89;79.48;96926.66;5107756;28;19963;-73
2022/05/09 00:41:34;;;;;;;;;;;;;;;12.85;79.50;96924.91;5106716;28;19961;-74
2022/05/09 00:44:02;;;;;;;;;;;;;;;12.80;79.32;96934.84;5107216;28;20003;-73
2022/05/09 00:46:29;;;;;;;;;;;;;;;12.82;78.82;96939.19;5106658;28;19928;-74
2022/05/09 00:48:57;;;;;;;;;;;;;;;12.77;78.75;96934.66;5107290;28;19935;-74
2022/05/09 00:51:24;;;;;;;;;;;;;;;12.72;78.72;96932.09;5105750;28;19927;-74
2022/05/09 00:53:52;;;;;;;;;;;;;;;12.66;78.74;96934.16;5107785;28;20027;-73
2022/05/09 00:56:23;;;;;;;;;;;;;;;12.63;79.02;96933.97;5105828;28;19928;-74
2022/05/09 00:58:52;;;;;;;;;;;;;;;12.62;79.06;96924.19;5107359;28;19928;-73
2022/05/09 01:01:20;;;;;;;;;;;;;;;12.61;78.94;96928.84;5106715;28;19928;-73
2022/05/09 01:03:48;;;;;;;;;;;;;;;12.59;78.95;96928.38;5106938;28;19934;-74
2022/05/09 01:06:14;;;;;;;;;;;;;;;12.56;79.11;96928.97;5106655;28;20004;-73
2022/05/09 01:08:41;;;;;;;;;;;;;;;12.56;78.98;96928.97;5106659;28;19949;-74
2022/05/09 01:11:09;;;;;;;;;;;;;;;12.55;79.06;96927.38;5106622;28;19924;-73
2022/05/09 01:13:37;;;;;;;;;;;;;;;12.54;78.89;96933.97;5105645;28;19931;-73
2022/05/09 01:16:05;;;;;;;;;;;;;;;12.51;78.25;96929.94;5106489;28;19951;-73
2022/05/09 01:18:33;;;;;;;;;;;;;;;12.43;78.07;96932.66;5106798;28;19935;-73
2022/05/09 01:20:59;;;;;;;;;;;;;;;12.35;78.22;96930.69;5106898;28;19931;-73
2022/05/09 01:23:32;;;;;;;;;;;;;;;12.34;78.36;96931.81;5105963;28;19928;-73
2022/05/09 01:25:59;;;;;;;;;;;;;;;12.35;78.29;96938.88;5106499;28;19927;-75
2022/05/09 01:28:25;;;;;;;;;;;;;;;12.26;78.52;96928.69;5106043;28;19935;-73
2022/05/09 01:30:54;;;;;;;;;;;;;;;12.22;79.00;96929.66;5105250;28;19927;-72
2022/05/09 01:33:24;;;;;;;;;;;;;;;12.23;79.65;96926.63;5106366;28;19938;-73
2022/05/09 01:35:52;;;;;;;;;;;;;;;12.21;79.80;96926.09;5105358;28;19934;-75
2022/05/09 01:38:23;;;;;;;;;;;;;;;12.23;80.29;96925.81;5105745;28;19934;-75
2022/05/09 01:40:50;;;;;;;;;;;;;;;12.22;80.25;96927.75;5105566;28;19928;-73
2022/05/09 01:43:28;;;;;;;;;;;;;;;12.22;80.30;96930.47;5105386;28;19971;-73
2022/05/09 01:45:55;;;;;;;;;;;;;;;12.13;80.27;96926.88;5105432;28;19937;-73
2022/05/09 01:51:20;;;;;;;;;;;;;;;12.16;80.41;96934.47;5041987;28;19995;-75
2022/05/09 01:53:49;;;;;;;;;;;;;;;12.11;80.60;96929.13;5041600;28;19928;-73
2022/05/09 01:56:17;;;;;;;;;;;;;;;12.09;80.62;96930.56;5070639;28;19941;-74
2022/05/09 01:58:44;;;;;;;;;;;;;;;12.14;80.91;96927.69;5105567;28;19966;-73
2022/05/09 02:01:10;;;;;;;;;;;;;;;12.17;80.48;96925.16;5105357;28;19928;-74
2022/05/09 02:03:37;;;;;;;;;;;;;;;12.16;80.52;96929.00;5105744;28;19955;-73
2022/05/09 02:06:03;;;;;;;;;;;;;;;12.17;80.73;96933.34;5105312;28;20012;-73
2022/05/09 02:08:30;;;;;;;;;;;;;;;12.20;80.41;96929.97;5106012;28;20014;-73
2022/05/09 02:10:56;;;;;;;;;;;;;;;12.21;79.62;96928.03;5105936;28;20386;-73
2022/05/09 02:13:24;;;;;;;;;;;;;;;12.20;79.19;96932.69;5105663;28;19935;-73
2022/05/09 02:15:50;;;;;;;;;;;;;;;12.18;78.84;96934.94;5105294;28;19935;-73
2022/05/09 02:18:17;;;;;;;;;;;;;;;12.14;78.89;96933.94;5105886;28;20375;-73
2022/05/09 02:20:43;;;;;;;;;;;;;;;12.10;78.95;96922.03;5105654;28;20389;-73
2022/05/09 02:23:09;;;;;;;;;;;;;;;12.04;79.12;96927.97;5105666;28;20387;-72
2022/05/09 02:25:36;;;;;;;;;;;;;;;12.03;79.76;96924.44;5104941;28;20404;-73
2022/05/09 02:28:06;;;;;;;;;;;;;;;12.01;79.83;96929.41;5105225;28;20452;-73
2022/05/09 02:30:35;;;;;;;;;;;;;;;11.97;80.00;96925.69;5105727;28;20443;-73
2022/05/09 02:33:02;;;;;;;;;;;;;;;11.96;79.97;96926.81;5105205;28;20327;-73
2022/05/09 02:35:28;;;;;;;;;;;;;;;11.97;80.48;96925.69;5106151;28;19925;-73
2022/05/09 02:37:55;;;;;;;;;;;;;;;12.00;80.67;96925.03;5105281;28;19958;-73
2022/05/09 02:40:21;;;;;;;;;;;;;;;11.98;80.51;96928.09;5105285;28;20411;-72
2022/05/09 02:42:48;;;;;;;;;;;;;;;11.98;80.64;96940.94;5107092;28;21370;-73
2022/05/09 02:45:14;;;;;;;;;;;;;;;11.98;80.52;96930.03;5109713;28;20333;-75
2022/05/09 02:47:42;;;;;;;;;;;;;;;11.95;80.59;96931.47;5108697;28;20385;-75
2022/05/09 02:50:10;;;;;;;177.95;47.60;;;;;;;11.99;80.14;96926.16;5107809;28;20444;-72
2022/05/09 02:52:37;;;;;;;;;;;;;;;11.96;79.69;96926.81;5109361;28;20055;-72
2022/05/09 02:55:05;;;;;;;19.38;9.00;;;;;;;11.93;79.93;96921.97;5107137;28;20963;-72
2022/05/09 02:57:32;;;;;;;138.15;46.95;;;;;;;11.89;80.08;96920.97;5109351;28;20054;-72
2022/05/09 02:59:58;;;;;;;96.45;52.00;;;;;;;11.83;80.25;96927.69;5108615;28;20217;-73
2022/05/09 03:02:25;;;;;;;146.67;40.00;;;;;;;11.82;80.45;96926.88;5108297;28;20950;-73
2022/05/09 03:04:52;;;;;;;138.05;40.35;;;;;;;11.77;80.11;96925.03;5108206;28;20075;-73
2022/05/09 03:07:19;;;;;;;28.38;12.68;;;;;;;11.75;79.83;96935.47;5107905;28;20104;-73
2022/05/09 03:09:49;;;;;;;21.30;11.48;;;;;;;11.73;79.77;96934.16;5108036;28;20053;-73
2022/05/09 03:12:18;;;;;;;33.05;15.35;;;;;;;11.64;79.62;96936.84;5107881;28;20051;-73
2022/05/09 03:14:45;;;;;;;18.13;11.33;;;;;;;11.58;80.16;96938.06;5107550;28;20044;-73
2022/05/09 03:17:12;;;;;;;;;;;;;;;11.59;80.76;96934.25;5107552;28;20417;-73
2022/05/09 03:19:38;;;;;;;172.30;47.40;;;;;;;11.60;80.83;96933.13;5108149;28;20464;-72
2022/05/09 03:22:07;;;;;;;22.90;13.20;;;;;;;11.65;81.10;96935.72;5107336;28;20158;-73
2022/05/09 03:24:34;;;;;;;19.65;10.32;;;;;;;11.65;80.84;96940.38;5108455;28;20502;-73
2022/05/09 03:27:02;;;;;;;19.55;10.85;;;;;;;11.61;80.51;96936.66;5107805;28;20692;-73
2022/05/09 03:29:28;;;;;;;21.52;11.40;;;;;;;11.59;80.60;96939.69;5108041;28;20051;-72
2022/05/09 03:31:55;;;;;;;17.23;10.02;;;;;;;11.54;80.84;96942.56;5107495;28;20047;-73
2022/05/09 03:34:21;;;;;;;24.90;16.20;;;;;;;11.51;80.96;96937.69;5108071;28;20541;-73
2022/05/09 03:36:48;;;;;;;17.58;8.77;;;;;;;11.48;81.47;96939.16;5107411;28;20043;-73
2022/05/09 03:39:16;;;;;;;21.70;12.25;;;;;;;11.50;81.55;96938.81;5107370;28;20113;-73
2022/05/09 03:41:42;;;;;;;132.80;46.35;;;;;;;11.48;81.69;96935.59;5103714;28;20048;-73
2022/05/09 03:44:09;;;;;;;;;;;;;;;11.52;82.06;96939.31;5106633;28;20445;-74
2022/05/09 03:46:35;;;;;;;;;;;;;;;11.56;81.86;96936.78;5108317;28;19932;-73
2022/05/09 03:49:01;;;;;;;;;;;;;;;11.58;81.96;96937.25;5107631;28;19934;-73
2022/05/09 03:51:28;;;;;;;;;;;;;;;11.63;82.23;96934.41;5108747;28;19939;-73
2022/05/09 03:53:54;;;;;;;;;;;;;;;11.68;81.54;96939.75;5106971;28;19957;-73
2022/05/09 03:56:22;;;;;;;;;;;;;;;11.69;81.45;96944.91;5108092;28;20337;-73
2022/05/09 03:58:48;;;;;;;;;;;;;;;11.68;81.40;96943.28;5107814;28;20653;-73
2022/05/09 04:01:15;;;;;;;157.55;44.30;;;;;;;11.69;81.70;96944.91;5107127;28;20420;-72
2022/05/09 04:03:41;;;;;;;;;;;;;;;11.74;81.40;96946.69;5108145;28;20147;-73
2022/05/09 04:06:08;;;;;;;72.95;27.75;;;;;;;11.73;80.88;96950.53;5106965;28;20054;-73
2022/05/09 04:08:34;;;;;;;;;;;;;;;11.66;80.53;96942.78;5108052;28;20071;-73
2022/05/09 04:11:00;;;;;;;;;;;;;;;11.67;80.87;96947.13;5107818;28;20786;-73
2022/05/09 04:13:28;;;;;;;;;;;;;;;11.72;80.62;96955.19;5107320;28;20441;-74
2022/05/09 04:18:44;;;;;;;;;;;;;;;11.76;80.04;96949.91;5091095;28;20481;-73
2022/05/09 04:21:12;;;;;;;;;;;;;;;11.79;79.86;96948.47;5106400;28;20498;-73
2022/05/09 04:23:38;;;;;;;;;;;;;;;11.75;79.92;96949.13;5107512;28;20024;-73
2022/05/09 04:26:05;;;;;;;;;;;;;;;11.73;80.39;96954.06;5107056;28;20043;-73
2022/05/09 04:28:33;;;;;;;;;;;;;;;11.77;80.88;96957.78;5107415;28;20637;-73
2022/05/09 04:31:00;;;;;;;;;;;;;;;11.83;81.32;96954.97;5107657;28;19928;-73
2022/05/09 04:33:26;;;;;;;;;;;;;;;11.87;81.69;96955.97;5106724;28;19927;-74
2022/05/09 04:35:54;;;;;;;;;;;;;;;11.92;82.22;96953.09;5107507;28;20412;-73
2022/05/09 04:38:22;;;;;;;;;;;;;;;12.00;82.53;96957.78;5106387;28;20418;-75
2022/05/09 04:40:51;;;;;;;;;;;;;;;12.08;82.24;96957.06;5107465;28;20454;-73
2022/05/09 04:43:18;;;;;;;;;;;;;;;12.14;81.92;96958.53;5106097;28;20426;-72
2022/05/09 04:45:46;;;;;;;;;;;;;;;12.17;81.42;96960.63;5107061;28;20457;-72
2022/05/09 04:48:12;;;;;;;;;;;;;;;12.20;81.44;96960.00;5106479;28;20452;-73
2022/05/09 04:50:38;;;;;;;;;;;;;;;12.25;81.55;96968.06;5106529;28;20494;-73
2022/05/09 04:53:05;;;;;;;;;;;;;;;12.31;81.80;96970.66;5106665;28;20562;-73
2022/05/09 04:55:31;;;;;;;;;;;;;;;12.35;81.56;96971.63;5106465;28;19928;-72
2022/05/09 04:57:59;;;;;;;;;;;;;;;12.40;81.67;96969.56;5107244;28;19928;-73
2022/05/09 05:00:26;;;;;;;;;;;;;;;12.42;81.49;96974.72;5105894;28;20636;-75
2022/05/09 05:02:54;;;;;;;;;;;;;;;12.42;81.65;96980.19;5106994;28;20260;-72
2022/05/09 05:05:21;;;;;;;;;;;;;;;12.43;81.62;96974.41;5105756;28;20492;-73
2022/05/09 05:07:48;;;;;;;;;;;;;;;12.46;81.72;96979.25;5106976;28;20443;-73
2022/05/09 05:10:15;;;;;;;;;;;;;;;12.50;81.59;96977.50;5105510;28;20317;-73
2022/05/09 05:12:41;;;;;;;;;;;;;;;12.56;81.59;96985.56;5106363;28;20301;-73
2022/05/09 05:15:08;;;;;;;;;;;;;;;12.62;81.71;96987.03;5105475;28;19928;-73
2022/05/09 05:17:35;;;;;;;;;;;;;;;12.67;82.09;96978.69;5106322;28;19931;-73
2022/05/09 05:20:04;;;;;;;;;;;;;;;12.73;82.56;96978.22;5106390;28;19927;-73
2022/05/09 05:22:31;;;;;;;;;;;;;;;12.82;82.89;96985.66;5105409;28;19927;-73
2022/05/09 05:24:58;;;;;;;;;;;;;;;12.90;83.07;96982.16;5106859;28;20382;-73
2022/05/09 05:27:24;;;;;;;;;;;;;;;12.98;82.81;96984.88;5105184;28;19934;-73
2022/05/09 05:29:53;;;;;;;;;;;;;;;13.07;83.10;96987.66;5106713;28;19956;-73
2022/05/09 05:32:20;;;;;;;;;;;;;;;13.14;83.00;96987.97;5105548;28;19927;-73
2022/05/09 05:34:46;;;;;;;;;;;;;;;13.18;83.19;96983.47;5106365;28;19934;-74
2022/05/09 05:37:15;;;;;;;;;;;;;;;13.22;82.85;96981.75;5105488;28;19928;-74
2022/05/09 05:39:42;;;;;;;;;;;;;;;13.26;82.76;96990.13;5105494;28;19928;-74
2022/05/09 05:42:09;;;;;;;;;;;;;;;13.28;82.09;96982.41;5105690;28;19924;-73
2022/05/09 05:44:37;;;;;;;;;;;;;;;13.32;81.97;96989.66;5105754;28;20050;-74
2022/05/09 05:47:05;;;;;;;;;;;;;;;13.41;81.93;96986.09;5105907;28;19999;-74
2022/05/09 05:49:32;;;;;;;;;;;;;;;13.47;81.72;96991.13;5105406;28;19996;-73
2022/05/09 05:52:02;;;;;;;;;;;;;;;13.52;81.51;96995.59;5105700;28;20000;-77
2022/05/09 05:54:30;;;;;;;;;;;;;;;13.57;81.46;96995.44;5105631;28;20466;-76
2022/05/09 05:56:56;;;;;;;;;;;;;;;13.60;80.93;97000.28;5105797;28;20397;-74
2022/05/09 05:59:23;;;;;;;;;;;;;;;13.67;80.46;97000.59;5104719;28;19992;-75
2022/05/09 06:01:51;;;;;;;;;;;;;;;13.74;80.10;96989.19;5105214;28;20389;-74
2022/05/09 06:04:18;;;;;;;;;;;;;;;13.84;80.13;96994.34;5103318;28;19952;-76
2022/05/09 06:06:44;;;;;;;;;;;;;;;13.89;80.09;97002.38;5104731;28;20015;-75
2022/05/09 06:09:12;;;;;;;;;;;;;;;13.96;79.62;97001.91;5105468;28;20425;-75
2022/05/09 06:11:40;;;;;;;;;;;;;;;14.00;79.05;97008.34;5104646;28;20553;-75
2022/05/09 06:14:07;;;;;;;;;;;;;;;14.03;79.07;97007.66;5085082;28;20012;-74
2022/05/09 06:16:33;;;;;;;;;;;;;;;14.03;78.08;97010.41;5085552;28;19924;-76
2022/05/09 06:19:00;;;;;;;;;;;;;;;14.14;78.02;97000.72;5089519;28;20322;-76
2022/05/09 06:21:26;;;;;;;;;;;;;;;14.18;77.86;97012.66;5105788;28;20413;-75
2022/05/09 06:23:52;;;;;;;;;;;;;;;14.21;77.94;97014.75;5109303;28;19931;-75
2022/05/09 06:26:21;;;;;;;;;;;;;;;14.22;77.90;97013.63;5108976;28;19927;-75
2022/05/09 06:28:48;;;;;;;;;;;;;;;14.28;78.05;97019.72;5109322;28;20472;-74
2022/05/09 06:31:15;;;;;;;;;;;;;;;14.30;78.27;97018.28;5109437;28;19931;-75
2022/05/09 06:33:41;;;;;;;;;;;;;;;14.35;78.21;97020.03;5108925;28;19928;-74
2022/05/09 06:36:07;;;;;;;179.52;50.22;;;;;;;14.40;78.30;97016.31;5109076;28;20002;-73
2022/05/09 06:38:34;;;;;;;151.52;48.53;;;;;;;14.42;78.19;97019.53;5108169;28;20108;-74
2022/05/09 06:41:01;;;;;;;172.80;48.83;;;;;;;14.39;78.21;97017.44;5109600;28;20055;-75
2022/05/09 06:43:28;;;;;;;;;;;;;;;14.43;78.35;97016.47;5108025;28;20820;-74
2022/05/09 06:45:56;;;;;;;;;;;;;;;14.48;78.08;97024.53;5109417;28;20382;-73
2022/05/09 06:48:22;;;;;;;;;;;;;;;14.50;78.38;97022.25;5109279;28;19924;-75
2022/05/09 06:50:48;;;;;;;;;;;;;;;14.53;78.40;97026.31;5108526;28;20465;-75
2022/05/09 06:53:15;;;;;;;;;;;;;;;14.60;78.03;97032.06;5107795;28;21058;-74
2022/05/09 06:55:41;;;;;;;;;;;;;;;14.67;77.86;97037.03;5108393;28;20523;-74
2022/05/09 06:58:08;;;;;;;;;;;;;;;14.72;78.26;97039.63;5108903;28;19923;-74
2022/05/09 07:00:35;;;;;;;;;;;;;;;14.78;78.36;97030.91;5108632;28;19934;-75
2022/05/09 07:03:03;;;;;;;;;;;;;;;14.87;78.52;97037.13;5108664;28;19928;-75
2022/05/09 07:05:30;;;;;;;;;;;;;;;14.91;78.68;97036.50;5108363;28;19930;-75
2022/05/09 07:07:56;;;;;;;;;;;;;;;15.01;79.09;97033.38;5108300;28;19924;-74
2022/05/09 07:10:23;;;;;;;;;;;;;;;15.14;78.88;97040.59;5108283;28;20385;-75
2022/05/09 07:12:50;;;;;;;;;;;;;;;15.25;77.10;97039.06;5108260;28;20474;-75
2022/05/09 07:15:18;;;;;;;;;;;;;;;15.40;76.70;97041.25;5108290;28;19928;-75
2022/05/09 07:17:45;;;;;;;;;;;;;;;15.58;76.10;97041.13;5108063;28;19987;-75
2022/05/09 07:20:15;;;;;;;;;;;;;;;15.75;74.83;97035.53;5108502;28;19932;-75
2022/05/09 07:22:42;;;;;;;;;;;;;;;15.89;73.98;97030.56;5108149;28;19932;-74
2022/05/09 07:25:09;;;;;;;;;;;;;;;16.04;73.01;97034.66;5109026;28;19934;-75
2022/05/09 07:27:36;;;;;;;;;;;;;;;16.14;72.82;97030.69;5107677;28;19967;-74
2022/05/09 07:30:03;;;;;;;;;;;;;;;16.25;71.89;97034.63;5107549;27;19931;-73
2022/05/09 07:32:29;;;;;;;;;;;;;;;16.31;71.21;97033.25;5108297;28;19927;-75
2022/05/09 07:34:55;;;;;;;;;;;;;;;16.47;72.23;97032.63;5108775;28;19927;-73
2022/05/09 07:37:23;;;;;;;;;;;;;;;16.55;71.51;97029.78;5107703;28;19927;-76
2022/05/09 07:39:49;;;;;;;;;;;;;;;16.70;71.31;97040.16;5108372;28;20026;-75
2022/05/09 07:42:16;;;;;;;;;;;;;;;16.84;70.22;97044.53;5107704;28;19935;-76
2022/05/09 07:44:42;;;;;;;;;;;;;;;17.05;70.58;97039.75;5107853;28;20681;-77
2022/05/09 07:47:09;;;;;;;;;;;;;;;17.24;70.46;97033.69;5108635;28;19928;-75
2022/05/09 07:49:35;;;;;;;;;;;;;;;17.78;70.17;97040.84;5107911;28;19931;-77
2022/05/09 07:52:02;;;;;;;;;;;;;;;19.11;66.93;97037.84;5108036;28;19963;-77
2022/05/09 07:54:30;;;;;;;;;;;;;;;20.25;58.02;97040.41;5107700;28;20369;-77
2022/05/09 07:56:57;;;;;;;;;;;;;;;21.13;56.08;97040.47;5108450;28;20019;-75
2022/05/09 07:59:23;;;;;;;176.43;48.72;;;;;;;21.52;52.81;97045.91;5106464;28;20822;-74
2022/05/09 08:01:49;;;;;;;;;;;;;;;20.95;53.14;97045.72;5107764;28;20056;-75
2022/05/09 08:04:16;;;;;;;;;;;;;;;20.42;55.07;97034.44;5107636;28;20378;-73
2022/05/09 08:06:42;;;;;;;;;;;;;;;20.18;55.05;97040.25;5106693;28;20430;-74
2022/05/09 08:09:09;;;;;;;;;;;;;;;19.74;56.16;97044.09;5107619;28;20348;-75
2022/05/09 08:11:36;;;;;;;;;;;;;;;19.69;58.71;97044.38;5106742;28;19939;-75
2022/05/09 08:14:03;;;;;;;;;;;;;;;19.78;56.07;97047.75;5107453;28;20056;-74
2022/05/09 08:16:30;;;;;;;;;;;;;;;20.15;57.96;97049.28;5106662;28;19928;-74
2022/05/09 08:18:57;;;;;;;;;;;;;;;20.44;58.86;97048.69;5107846;28;20402;-75
2022/05/09 08:21:23;;;;;;;;;;;;;;;20.85;55.25;97047.13;5106612;28;20476;-76
2022/05/09 08:23:50;;;;;;;;;;;;;;;20.83;52.75;97043.16;5107782;28;20649;-74
2022/05/09 08:26:18;;;;;;;161.32;47.70;;;;;;;20.53;54.39;97043.78;5105957;28;20497;-75
2022/05/09 08:28:45;;;;;;;;;;;;;;;20.18;55.77;97043.81;5107132;28;20047;-77
2022/05/09 08:31:16;;;;;;;;;;;;;;;19.90;56.55;97035.75;5106512;28;19927;-77
2022/05/09 08:33:43;;;;;;;;;;;;;;;20.00;58.57;97037.16;5106711;28;20285;-76
2022/05/09 08:36:09;;;;;;;;;;;;;;;19.89;58.24;97034.16;5106997;28;20405;-77
2022/05/09 08:38:35;;;;;;;;;;;;;;;20.03;59.04;97037.19;5106464;28;20920;-76
2022/05/09 08:41:07;;;;;;;;;;;;;;;20.24;57.82;97036.03;5106613;28;20271;-74
2022/05/09 08:43:56;;;;;;;;;;;;;;;20.57;60.55;97028.03;5106148;28;19928;-76
2022/05/09 08:46:31;;;;;;;;;;;;;;;20.80;55.57;97032.78;5105869;28;19951;-76
2022/05/09 08:49:02;;;;;;;;;;;;;;;20.98;52.57;97044.97;5106991;28;19927;-76
2022/05/09 08:51:35;;;;;;;;;;;;;;;20.94;53.37;97046.91;5106265;28;19934;-76
2022/05/09 08:54:06;;;;;;;;;;;;;;;20.97;52.69;97042.56;5106545;28;19934;-75
2022/05/09 08:59:18;;;;;;;;;;;;;;;21.13;53.33;97045.22;5103882;28;19927;-75
2022/05/09 09:01:50;;;;;;;;;;;;;;;21.08;52.31;97043.56;5106107;28;20515;-75
2022/05/09 09:04:20;;;;;;;;;;;;;;;21.15;52.21;97048.44;5105512;28;20011;-75
2022/05/09 09:06:50;;;;;;;;;;;;;;;21.16;52.17;97053.59;5105773;28;20050;-77
2022/05/09 09:09:21;;;;;;;;;;;;;;;21.20;52.30;97054.47;5105118;28;19999;-76
2022/05/09 09:11:53;;;;;;;;;;;;;;;21.17;52.21;97049.66;5106291;28;20004;-74
2022/05/09 09:14:25;;;;;;;;;;;;;;;21.21;52.73;97046.94;5105212;28;20004;-75
2022/05/09 09:17:04;;;;;;;;;;;;;;;21.27;52.68;97051.00;5106481;28;20389;-74
2022/05/09 09:19:47;;;;;;;;;;;;;;;21.10;51.94;97047.56;5105041;28;20002;-75
2022/05/09 09:22:19;;;;;;;;;;;;;;;21.08;55.53;97043.56;5105508;28;20083;-75
2022/05/09 09:24:56;;;;;;;;;;;;;;;21.18;53.45;97047.69;5106920;28;20458;-75
2022/05/09 09:27:33;;;;;;;;;;;;;;;21.15;54.23;97045.66;5105089;28;19996;-76
2022/05/09 09:30:02;;;;;;;;;;;;;;;21.09;54.95;97045.97;5106881;28;20370;-76
2022/05/09 09:32:31;;;;;;;;;;;;;;;21.18;53.66;97039.38;5105386;28;20004;-76
2022/05/09 09:34:59;;;;;;;;;;;;;;;21.38;53.65;97043.69;5106056;28;20006;-76
2022/05/09 09:37:30;;;;;;;;;;;;;;;21.46;50.84;97042.66;5105096;28;20721;-75
2022/05/09 09:39:57;;;;;;;;;;;;;;;21.52;51.85;97034.81;5105919;28;19996;-76
2022/05/09 09:42:23;;;;;;;;;;;;;;;21.73;54.40;97028.78;5105032;28;20003;-76
2022/05/09 09:44:53;;;;;;;;;;;;;;;21.93;50.34;97038.56;5105435;28;20000;-76
2022/05/09 09:47:23;;;;;;;;;;;;;;;21.99;50.32;97047.34;5105441;28;20030;-75
2022/05/09 09:50:10;;;;;;;;;;;;;;;21.88;49.27;97038.91;5105349;28;20400;-75
2022/05/09 09:52:41;;;;;;;;;;;;;;;21.85;50.98;97034.09;5105046;28;20060;-76
2022/05/09 09:55:09;;;;;;;;;;;;;;;21.75;51.04;97043.06;5104886;28;19928;-74
2022/05/09 09:57:36;;;;;;;;;;;;;;;21.84;52.43;97032.50;5105388;28;19932;-74
2022/05/09 10:00:14;;;;;;;;;;;;;;;21.89;50.07;97030.19;5105316;28;19932;-77
2022/05/09 10:02:41;;;;;;;;;;;;;;;21.83;50.68;97033.69;5105014;28;19928;-75
2022/05/09 10:05:12;;;;;;;;;;;;;;;21.93;50.43;97037.78;5105470;28;19928;-74
2022/05/09 10:07:43;;;;;;;;;;;;;;;22.03;50.78;97032.38;5104434;28;19928;-77
2022/05/09 10:10:11;;;;;;;;;;;;;;;21.97;52.45;97033.06;5105114;28;19931;-74
2022/05/09 10:12:39;;;;;;;;;;;;;;;22.01;51.62;97022.81;5104678;28;19973;-73
2022/05/09 10:15:20;;;;;;;;;;;;;;;22.10;49.64;97032.47;5104866;28;20298;-77
2022/05/09 10:17:46;;;;;;;;;;;;;;;22.14;48.73;97027.78;5105424;28;20011;-78
2022/05/09 10:20:31;;;;;;;;;;;;;;;22.25;50.21;97025.13;5104667;28;19932;-75
2022/05/09 10:25:59;;;;;;;;;;;;;;;22.53;50.18;97021.88;5103913;28;20659;-77
2022/05/09 10:28:26;;;;;;;;;;;;;;;22.56;48.85;97015.59;5104409;28;20525;-78
2022/05/09 10:30:55;;;;;;;;;;;;;;;22.65;47.21;97015.25;5104988;28;19928;-78
2022/05/09 10:33:25;;;;;;;;;;;;;;;22.74;48.75;97017.72;5104630;28;20428;-74
2022/05/09 10:35:53;;;;;;;;;;;;;;;22.71;46.51;97012.94;5105684;28;20404;-75
2022/05/09 10:38:24;;;;;;;;;;;;;;;22.58;46.82;97016.00;5103913;28;20669;-74
2022/05/09 10:40:51;;;;;;;;;;;;;;;22.66;46.12;97009.34;5104352;28;21066;-76
2022/05/09 10:43:26;;;;;;;172.90;48.53;;;;;;;22.58;45.00;97009.66;5103219;28;20559;-75
2022/05/09 10:45:54;;;;;;;;;;;;;;;22.62;46.76;97005.72;5105757;28;20051;-76
2022/05/09 10:48:28;;;;;;;26.70;11.98;;;;;;;22.52;46.09;97002.84;5103269;28;20469;-76
2022/05/09 10:50:59;;;;;;;10.25;7.80;;;;;;;22.32;46.14;96996.69;5105403;28;20130;-75
2022/05/09 10:53:32;;;;;;;;;;;;;;;22.36;50.32;96989.19;5104800;28;19927;-78
2022/05/09 10:56:04;;;;;;;;;;;;;;;22.53;48.72;96994.13;5104293;28;20300;-78
2022/05/09 10:58:35;;;;;;;;;;;;;;;22.77;48.53;96992.00;5087160;28;19927;-77
2022/05/09 11:01:08;;;;;;;12.60;8.80;;;;;;;23.00;48.65;96989.84;5102478;28;20408;-77
2022/05/09 11:03:37;;;;;;;24.63;12.68;;;;;;;22.84;46.56;96986.50;5107267;28;20074;-77
2022/05/09 11:06:18;;;;;;;15.32;9.45;;;;;;;22.58;49.12;96991.00;5110047;28;20044;-80
2022/05/09 11:09:03;;;;;;;354.42;223.57;;;;;;;22.31;48.73;96982.00;5111867;28;20043;-80
2022/05/09 11:11:38;;;;;;;60.78;51.33;;;;;;;21.99;47.52;96987.16;5111726;28;20101;-77
2022/05/09 11:14:17;;;;;;;20.98;8.45;;;;;;;22.01;47.31;96972.91;5091984;28;20505;-79
2022/05/09 11:17:02;;;;;;;179.05;162.85;;;;;;;22.09;46.83;96964.28;5092579;28;20055;-75
2022/05/09 11:19:44;;;;;;;112.22;102.20;;;;;;;22.16;49.35;96973.91;5091533;28;20036;-76
2022/05/09 11:22:24;;;;;;;23.50;16.07;;;;;;;22.31;46.85;96970.13;5091025;28;20040;-78
2022/05/09 11:25:01;;;;;;;16.60;10.35;;;;;;;22.22;44.66;96967.63;5091889;28;20274;-78
2022/05/09 11:27:44;;;;;;;18.33;8.13;;;;;;;22.33;46.74;96959.41;5090910;28;20105;-78
2022/05/09 11:30:27;;;;;;;12.57;9.55;;;;;;;22.49;48.15;96957.22;5092043;28;20036;-75
2022/05/09 11:33:06;;;;;;;21.20;8.97;;;;;;;22.54;44.99;96962.41;5091362;28;20048;-76
2022/05/09 11:35:34;;;;;;;408.40;371.45;;;;;;;22.71;47.16;96958.25;5091532;28;20055;-77
2022/05/09 11:38:26;;;;;;;9.85;6.07;;;;;;;22.76;43.05;96943.19;5091674;28;20064;-78
2022/05/09 11:41:01;;;;;;;12.02;6.70;;;;;;;22.74;44.23;96948.34;5087283;28;20760;-75
2022/05/09 11:43:44;;;;;;;12.13;6.95;;;;;;;22.81;45.06;96948.38;5109487;28;20499;-75
2022/05/09 11:46:25;;;;;;;7.75;6.50;;;;;;;22.91;45.76;96947.72;5105361;28;20047;-75
2022/05/09 11:49:05;;;;;;;15.82;5.82;;;;;;;22.99;43.22;96943.81;5100109;28;20044;-75
2022/05/09 11:51:43;;;;;;;7.75;5.75;;;;;;;23.08;44.05;96941.50;5086930;28;20044;-74
2022/05/09 11:54:13;;;;;;;10.90;6.72;;;;;;;23.10;45.30;96932.78;5088199;28;20055;-74
2022/05/09 11:56:46;;;;;;;14.63;8.77;;;;;;;23.12;45.00;96935.97;5107805;28;20058;-74
2022/05/09 11:59:21;;;;;;;14.02;6.50;;;;;;;23.16;46.08;96932.03;5105736;28;20047;-75
2022/05/09 12:02:00;;;;;;;15.32;5.38;;;;;;;23.29;42.91;96940.88;5106423;28;20058;-75
2022/05/09 12:04:35;;;;;;;8.63;5.35;;;;;;;23.37;42.92;96925.03;5105399;28;20115;-76
2022/05/09 12:07:41;;;;;;;5.70;5.05;;;;;;;23.39;41.07;96936.56;5105272;28;20569;-76
2022/05/09 12:10:19;;;;;;;11.40;5.80;;;;;;;23.37;42.02;96936.94;5106788;28;20418;-76
2022/05/09 12:12:54;;;;;;;7.25;5.50;;;;;;;23.38;42.77;96926.59;5093531;28;20071;-76
2022/05/09 12:15:41;;;;;;;7.60;5.50;;;;;;;23.46;43.43;96927.47;5105036;28;20055;-74
2022/05/09 12:18:20;;;;;;;12.60;6.00;;;;;;;23.48;44.02;96925.88;5106317;28;20473;-75
2022/05/09 12:21:14;;;;;;;15.50;6.38;;;;;;;23.47;43.23;96923.50;5106433;28;20043;-74
2022/05/09 12:24:23;;;;;;;12.40;6.43;;;;;;;23.44;42.83;96927.88;5107241;28;20616;-77
2022/05/09 12:26:51;;;;;;;6.20;5.60;;;;;;;23.32;42.15;96922.59;5106616;28;20067;-75
2022/05/09 12:29:52;;;;;;;7.22;5.18;;;;;;;23.35;43.26;96927.41;5105338;28;20528;-76
2022/05/09 12:32:20;;;;;;;7.47;5.00;;;;;;;23.36;43.42;96924.22;5106734;28;20046;-76
2022/05/09 12:34:48;;;;;;;8.73;5.75;;;;;;;23.28;40.99;96928.13;5106370;28;20048;-76
2022/05/09 12:37:22;;;;;;;8.15;5.40;;;;;;;23.27;44.07;96931.31;5106223;28;20051;-75
2022/05/09 12:39:50;;;;;;;6.10;4.95;;;;;;;23.16;40.41;96922.91;5106324;28;20052;-75
2022/05/09 12:42:45;;;;;;;11.40;5.47;;;;;;;23.17;41.84;96916.94;5105590;28;20054;-75
2022/05/09 12:45:16;;;;;;;10.05;5.05;;;;;;;23.26;42.26;96915.81;5103252;28;20051;-74
2022/05/09 12:47:43;;;;;;;9.20;5.53;;;;;;;23.26;44.62;96918.59;5106187;28;20047;-75